CCM55FH LFML-LFKJ
Flight info
| Callsign | CCM55FH |
|---|---|
| Flight time | 0h 59m |
| Altitude | 23000 |
| Route | TINOT Z154 RUBAS |
| Aircraft | A320/M-SDE2E3FGIJ1RWY/HB1 |
Departure
| Time | 2026-04-23 22:02 |
|---|---|
| Airport | Marseille Provence Airport (LFML) |
Arrival
| Time | 2026-04-23 23:01 |
|---|---|
| Airport | Ajaccio Napoléon Bonaparte airport (LFKJ) |
| Time | Latitude | Longitude | Altitude | Speed | Heading |
|---|---|---|---|---|---|
| 2026-04-23 21:29 | 43.43863 | 5.22309 | 45 ft | 0 kts | 73° |
| 2026-04-23 21:47 | 43.43859 | 5.22281 | 45 ft | 4 kts | 97° |
| 2026-04-23 21:47 | 43.43868 | 5.22248 | 44 ft | 4 kts | 131° |
| 2026-04-23 21:48 | 43.43888 | 5.22223 | 41 ft | 4 kts | 141° |
| 2026-04-23 21:48 | 43.43904 | 5.22200 | 41 ft | 4 kts | 95° |
| 2026-04-23 21:48 | 43.43897 | 5.22182 | 41 ft | 4 kts | 26° |
| 2026-04-23 21:48 | 43.43876 | 5.22183 | 40 ft | 4 kts | 329° |
| 2026-04-23 21:49 | 43.43856 | 5.22199 | 41 ft | 4 kts | 335° |
| 2026-04-23 21:49 | 43.43831 | 5.22213 | 44 ft | 4 kts | 344° |
| 2026-04-23 21:49 | 43.43808 | 5.22221 | 45 ft | 1 kts | 343° |
| 2026-04-23 21:52 | 43.43811 | 5.22220 | 45 ft | 4 kts | 342° |
| 2026-04-23 21:52 | 43.43864 | 5.22188 | 40 ft | 11 kts | 330° |
| 2026-04-23 21:52 | 43.43927 | 5.22121 | 41 ft | 12 kts | 314° |
| 2026-04-23 21:52 | 43.43991 | 5.22029 | 39 ft | 14 kts | 317° |
| 2026-04-23 21:53 | 43.44063 | 5.21932 | 36 ft | 15 kts | 312° |
| 2026-04-23 21:53 | 43.44109 | 5.21816 | 34 ft | 14 kts | 253° |
| 2026-04-23 21:53 | 43.44045 | 5.21723 | 33 ft | 13 kts | 224° |
| 2026-04-23 21:53 | 43.43982 | 5.21637 | 34 ft | 12 kts | 224° |
| 2026-04-23 21:54 | 43.43926 | 5.21551 | 33 ft | 12 kts | 243° |
| 2026-04-23 21:54 | 43.43952 | 5.21441 | 31 ft | 15 kts | 313° |
| 2026-04-23 21:54 | 43.44035 | 5.21322 | 28 ft | 19 kts | 314° |
| 2026-04-23 21:54 | 43.44132 | 5.21184 | 25 ft | 21 kts | 314° |
| 2026-04-23 21:55 | 43.44241 | 5.21026 | 21 ft | 24 kts | 311° |
| 2026-04-23 21:55 | 43.44337 | 5.20827 | 18 ft | 26 kts | 304° |
| 2026-04-23 21:55 | 43.44442 | 5.20673 | 18 ft | 22 kts | 315° |
| 2026-04-23 21:55 | 43.44550 | 5.20519 | 18 ft | 23 kts | 313° |
| 2026-04-23 21:56 | 43.44641 | 5.20389 | 18 ft | 15 kts | 314° |
| 2026-04-23 21:56 | 43.44673 | 5.20311 | 17 ft | 0 kts | 277° |
| 2026-04-23 21:56 | 43.44674 | 5.20310 | 17 ft | 0 kts | 277° |
| 2026-04-23 21:57 | 43.44674 | 5.20309 | 17 ft | 0 kts | 277° |
| 2026-04-23 21:57 | 43.44674 | 5.20307 | 17 ft | 0 kts | 277° |
| 2026-04-23 22:00 | 43.44667 | 5.20281 | 17 ft | 10 kts | 239° |
| 2026-04-23 22:01 | 43.44592 | 5.20229 | 18 ft | 12 kts | 173° |
| 2026-04-23 22:01 | 43.44538 | 5.20266 | 19 ft | 0 kts | 132° |
| 2026-04-23 22:01 | 43.44476 | 5.20358 | 20 ft | 49 kts | 134° |
| 2026-04-23 22:01 | 43.44059 | 5.20950 | 21 ft | 119 kts | 134° |
| 2026-04-23 22:02 | 43.43370 | 5.21930 | 225 ft | 153 kts | 134° |
| 2026-04-23 22:02 | 43.42594 | 5.22965 | 829 ft | 163 kts | 141° |
| 2026-04-23 22:02 | 43.41584 | 5.23887 | 1255 ft | 185 kts | 148° |
| 2026-04-23 22:02 | 43.40419 | 5.24870 | 1661 ft | 208 kts | 148° |
| 2026-04-23 22:03 | 43.39129 | 5.25969 | 2106 ft | 228 kts | 148° |
| 2026-04-23 22:03 | 43.37726 | 5.27171 | 2713 ft | 243 kts | 147° |
| 2026-04-23 22:03 | 43.36285 | 5.28409 | 3547 ft | 247 kts | 147° |
| 2026-04-23 22:03 | 43.34773 | 5.29709 | 4250 ft | 263 kts | 147° |
| 2026-04-23 22:04 | 43.33216 | 5.31054 | 5248 ft | 266 kts | 147° |
| 2026-04-23 22:04 | 43.31608 | 5.32337 | 6281 ft | 269 kts | 156° |
| 2026-04-23 22:04 | 43.29766 | 5.32854 | 7222 ft | 275 kts | 176° |
| 2026-04-23 22:04 | 43.27841 | 5.32908 | 8162 ft | 278 kts | 177° |
| 2026-04-23 22:05 | 43.25899 | 5.32946 | 9076 ft | 283 kts | 178° |
| 2026-04-23 22:05 | 43.23914 | 5.32982 | 9990 ft | 287 kts | 179° |
| 2026-04-23 22:05 | 43.21878 | 5.33020 | 10608 ft | 302 kts | 178° |
| 2026-04-23 22:05 | 43.19696 | 5.33066 | 10970 ft | 323 kts | 178° |
| 2026-04-23 22:06 | 43.17412 | 5.33114 | 11634 ft | 332 kts | 179° |
| 2026-04-23 22:06 | 43.15088 | 5.33167 | 12406 ft | 338 kts | 178° |
| 2026-04-23 22:06 | 43.12714 | 5.33224 | 13187 ft | 343 kts | 178° |
| 2026-04-23 22:06 | 43.10315 | 5.33284 | 14029 ft | 346 kts | 178° |
| 2026-04-23 22:07 | 43.07900 | 5.33343 | 14731 ft | 350 kts | 178° |
| 2026-04-23 22:07 | 43.05449 | 5.33398 | 15386 ft | 355 kts | 178° |
| 2026-04-23 22:07 | 43.02954 | 5.33452 | 16028 ft | 361 kts | 179° |
| 2026-04-23 22:07 | 43.00420 | 5.33496 | 16661 ft | 367 kts | 180° |
| 2026-04-23 22:08 | 42.97847 | 5.33423 | 17295 ft | 372 kts | 182° |
| 2026-04-23 22:08 | 42.95241 | 5.33260 | 17931 ft | 378 kts | 183° |
| 2026-04-23 22:08 | 42.92592 | 5.33052 | 18424 ft | 387 kts | 184° |
| 2026-04-23 22:08 | 42.89884 | 5.32831 | 18955 ft | 392 kts | 184° |
| 2026-04-23 22:09 | 42.87141 | 5.32619 | 19492 ft | 397 kts | 184° |
| 2026-04-23 22:09 | 42.84364 | 5.32423 | 20064 ft | 402 kts | 184° |
| 2026-04-23 22:09 | 42.81558 | 5.32238 | 20649 ft | 405 kts | 184° |
| 2026-04-23 22:09 | 42.78725 | 5.32062 | 21225 ft | 409 kts | 184° |
| 2026-04-23 22:10 | 42.75870 | 5.32264 | 21786 ft | 415 kts | 170° |
| 2026-04-23 22:10 | 42.74016 | 5.32924 | 22157 ft | 419 kts | 160° |
| 2026-04-23 22:10 | 42.70607 | 5.35527 | 22854 ft | 424 kts | 139° |
| 2026-04-23 22:10 | 42.69202 | 5.37372 | 23105 ft | 425 kts | 128° |
| 2026-04-23 22:11 | 42.67571 | 5.40678 | 23199 ft | 414 kts | 112° |
| 2026-04-23 22:11 | 42.66573 | 5.44249 | 23202 ft | 399 kts | 104° |
| 2026-04-23 22:11 | 42.65697 | 5.47806 | 23204 ft | 396 kts | 104° |
| 2026-04-23 22:11 | 42.64815 | 5.51355 | 23203 ft | 396 kts | 105° |
| 2026-04-23 22:12 | 42.63931 | 5.54893 | 23205 ft | 396 kts | 105° |
| 2026-04-23 22:12 | 42.63043 | 5.58424 | 23206 ft | 396 kts | 105° |
| 2026-04-23 22:12 | 42.62152 | 5.61959 | 23203 ft | 396 kts | 105° |
| 2026-04-23 22:12 | 42.61257 | 5.65492 | 23203 ft | 396 kts | 105° |
| 2026-04-23 22:13 | 42.60359 | 5.69018 | 23200 ft | 396 kts | 105° |
| 2026-04-23 22:13 | 42.59459 | 5.72550 | 23219 ft | 396 kts | 105° |
| 2026-04-23 22:13 | 42.58563 | 5.76072 | 23222 ft | 395 kts | 105° |
| 2026-04-23 22:13 | 42.57669 | 5.79594 | 23223 ft | 394 kts | 105° |
| 2026-04-23 22:14 | 42.56789 | 5.83064 | 23224 ft | 394 kts | 105° |
| 2026-04-23 22:14 | 42.55896 | 5.86575 | 23222 ft | 393 kts | 105° |
| 2026-04-23 22:14 | 42.55004 | 5.90079 | 23221 ft | 393 kts | 105° |
| 2026-04-23 22:14 | 42.54109 | 5.93583 | 23220 ft | 393 kts | 105° |
| 2026-04-23 22:15 | 42.53214 | 5.97083 | 23211 ft | 393 kts | 105° |
| 2026-04-23 22:15 | 42.52317 | 6.00579 | 23214 ft | 393 kts | 105° |
| 2026-04-23 22:15 | 42.51418 | 6.04078 | 23210 ft | 393 kts | 105° |
| 2026-04-23 22:15 | 42.50508 | 6.07621 | 23209 ft | 393 kts | 105° |
| 2026-04-23 22:16 | 42.49620 | 6.11065 | 23197 ft | 389 kts | 107° |
| 2026-04-23 22:16 | 42.48736 | 6.14487 | 23180 ft | 382 kts | 107° |
| 2026-04-23 22:16 | 42.47860 | 6.17872 | 23182 ft | 381 kts | 107° |
| 2026-04-23 22:16 | 42.46985 | 6.21258 | 23182 ft | 380 kts | 107° |
| 2026-04-23 22:17 | 42.46111 | 6.24638 | 23179 ft | 380 kts | 107° |
| 2026-04-23 22:17 | 42.45238 | 6.28012 | 23179 ft | 380 kts | 107° |
| 2026-04-23 22:17 | 42.44365 | 6.31381 | 23179 ft | 380 kts | 107° |
| 2026-04-23 22:17 | 42.43488 | 6.34760 | 23181 ft | 381 kts | 107° |
| 2026-04-23 22:18 | 42.42605 | 6.38151 | 23182 ft | 383 kts | 107° |
| 2026-04-23 22:18 | 42.41718 | 6.41550 | 23180 ft | 384 kts | 107° |
| 2026-04-23 22:18 | 42.40824 | 6.44956 | 23180 ft | 384 kts | 107° |
| 2026-04-23 22:18 | 42.39931 | 6.48354 | 23193 ft | 382 kts | 108° |
| 2026-04-23 22:19 | 42.39049 | 6.51709 | 23178 ft | 375 kts | 108° |
| 2026-04-23 22:19 | 42.38180 | 6.55019 | 23179 ft | 374 kts | 108° |
| 2026-04-23 22:19 | 42.37309 | 6.58334 | 23179 ft | 373 kts | 108° |
| 2026-04-23 22:19 | 42.36443 | 6.61638 | 23179 ft | 373 kts | 108° |
| 2026-04-23 22:20 | 42.35579 | 6.64939 | 23179 ft | 373 kts | 108° |
| 2026-04-23 22:20 | 42.34711 | 6.68241 | 23179 ft | 373 kts | 108° |
| 2026-04-23 22:20 | 42.33842 | 6.71538 | 23182 ft | 373 kts | 108° |
| 2026-04-23 22:20 | 42.32967 | 6.74845 | 23182 ft | 373 kts | 108° |
| 2026-04-23 22:21 | 42.32095 | 6.78133 | 23182 ft | 373 kts | 108° |
| 2026-04-23 22:21 | 42.31216 | 6.81436 | 23182 ft | 373 kts | 108° |
| 2026-04-23 22:21 | 42.30342 | 6.84726 | 23192 ft | 373 kts | 108° |
| 2026-04-23 22:21 | 42.29466 | 6.88018 | 23199 ft | 372 kts | 108° |
| 2026-04-23 22:22 | 42.28592 | 6.91296 | 23204 ft | 371 kts | 108° |
| 2026-04-23 22:22 | 42.27717 | 6.94575 | 23206 ft | 370 kts | 109° |
| 2026-04-23 22:22 | 42.26846 | 6.97837 | 23205 ft | 370 kts | 108° |
| 2026-04-23 22:22 | 42.25973 | 7.01100 | 23202 ft | 369 kts | 109° |
| 2026-04-23 22:23 | 42.25100 | 7.04357 | 23200 ft | 369 kts | 108° |
| 2026-04-23 22:23 | 42.24226 | 7.07614 | 23199 ft | 369 kts | 108° |
| 2026-04-23 22:23 | 42.23352 | 7.10868 | 23197 ft | 368 kts | 109° |
| 2026-04-23 22:23 | 42.22478 | 7.14114 | 23192 ft | 368 kts | 108° |
| 2026-04-23 22:24 | 42.21605 | 7.17355 | 23188 ft | 368 kts | 109° |
| 2026-04-23 22:24 | 42.20729 | 7.20612 | 23187 ft | 368 kts | 108° |
| 2026-04-23 22:24 | 42.19857 | 7.23846 | 23185 ft | 368 kts | 108° |
| 2026-04-23 22:24 | 42.18980 | 7.27098 | 23182 ft | 368 kts | 109° |
| 2026-04-23 22:25 | 42.18105 | 7.30338 | 23176 ft | 368 kts | 108° |
| 2026-04-23 22:25 | 42.17226 | 7.33574 | 23176 ft | 368 kts | 108° |
| 2026-04-23 22:25 | 42.16347 | 7.36817 | 23172 ft | 368 kts | 109° |
| 2026-04-23 22:25 | 42.15468 | 7.40058 | 23171 ft | 369 kts | 108° |
| 2026-04-23 22:26 | 42.14584 | 7.43310 | 23171 ft | 369 kts | 109° |
| 2026-04-23 22:26 | 42.13701 | 7.46548 | 23171 ft | 369 kts | 109° |
| 2026-04-23 22:26 | 42.12814 | 7.49788 | 23173 ft | 369 kts | 108° |
| 2026-04-23 22:26 | 42.11929 | 7.53028 | 23171 ft | 369 kts | 109° |
| 2026-04-23 22:27 | 42.11041 | 7.56271 | 23172 ft | 369 kts | 109° |
| 2026-04-23 22:27 | 42.10153 | 7.59510 | 22721 ft | 371 kts | 108° |
| 2026-04-23 22:27 | 42.09256 | 7.62780 | 22165 ft | 370 kts | 108° |
| 2026-04-23 22:27 | 42.08370 | 7.66015 | 21699 ft | 367 kts | 108° |
| 2026-04-23 22:28 | 42.07487 | 7.69230 | 21233 ft | 364 kts | 108° |
| 2026-04-23 22:28 | 42.06612 | 7.72410 | 20773 ft | 362 kts | 108° |
| 2026-04-23 22:28 | 42.05738 | 7.75578 | 20313 ft | 360 kts | 108° |
| 2026-04-23 22:28 | 42.04883 | 7.78683 | 19859 ft | 358 kts | 108° |
| 2026-04-23 22:29 | 42.04009 | 7.81854 | 19401 ft | 356 kts | 108° |
| 2026-04-23 22:29 | 42.03160 | 7.84933 | 18962 ft | 355 kts | 108° |
| 2026-04-23 22:29 | 42.02290 | 7.88076 | 18510 ft | 354 kts | 108° |
| 2026-04-23 22:29 | 42.01432 | 7.91169 | 18020 ft | 352 kts | 108° |
| 2026-04-23 22:30 | 42.00585 | 7.94205 | 17589 ft | 349 kts | 108° |
| 2026-04-23 22:30 | 41.99735 | 7.97246 | 17164 ft | 347 kts | 108° |
| 2026-04-23 22:30 | 41.98886 | 8.00271 | 16729 ft | 344 kts | 110° |
| 2026-04-23 22:30 | 41.97742 | 8.03093 | 16303 ft | 345 kts | 123° |
| 2026-04-23 22:31 | 41.96125 | 8.05469 | 15872 ft | 347 kts | 137° |
| 2026-04-23 22:31 | 41.94277 | 8.07540 | 15449 ft | 345 kts | 137° |
| 2026-04-23 22:31 | 41.92432 | 8.09605 | 15031 ft | 343 kts | 137° |
| 2026-04-23 22:31 | 41.90605 | 8.11653 | 14610 ft | 341 kts | 137° |
| 2026-04-23 22:32 | 41.88788 | 8.13693 | 14184 ft | 340 kts | 137° |
| 2026-04-23 22:32 | 41.86978 | 8.15726 | 13736 ft | 338 kts | 137° |
| 2026-04-23 22:32 | 41.85182 | 8.17742 | 13304 ft | 335 kts | 137° |
| 2026-04-23 22:32 | 41.83401 | 8.19735 | 12883 ft | 332 kts | 137° |
| 2026-04-23 22:33 | 41.81634 | 8.21710 | 12459 ft | 329 kts | 137° |
| 2026-04-23 22:33 | 41.79887 | 8.23664 | 12042 ft | 326 kts | 137° |
| 2026-04-23 22:33 | 41.78152 | 8.25603 | 11659 ft | 322 kts | 137° |
| 2026-04-23 22:33 | 41.76460 | 8.27492 | 11528 ft | 310 kts | 137° |
| 2026-04-23 22:34 | 41.74831 | 8.29307 | 11208 ft | 300 kts | 137° |
| 2026-04-23 22:34 | 41.73242 | 8.31081 | 10559 ft | 297 kts | 137° |
| 2026-04-23 22:34 | 41.71669 | 8.32838 | 9989 ft | 290 kts | 137° |
| 2026-04-23 22:34 | 41.70144 | 8.34535 | 9558 ft | 278 kts | 137° |
| 2026-04-23 22:35 | 41.68689 | 8.36152 | 9171 ft | 266 kts | 137° |
| 2026-04-23 22:35 | 41.67291 | 8.37705 | 8794 ft | 260 kts | 137° |
| 2026-04-23 22:35 | 41.65901 | 8.39263 | 8411 ft | 260 kts | 134° |
| 2026-04-23 22:35 | 41.64717 | 8.41058 | 8012 ft | 260 kts | 122° |
| 2026-04-23 22:36 | 41.63796 | 8.43207 | 7431 ft | 270 kts | 115° |
| 2026-04-23 22:36 | 41.62979 | 8.45456 | 7182 ft | 267 kts | 106° |
| 2026-04-23 22:36 | 41.62684 | 8.47881 | 7171 ft | 265 kts | 87° |
| 2026-04-23 22:36 | 41.62996 | 8.50254 | 7161 ft | 252 kts | 69° |
| 2026-04-23 22:37 | 41.63791 | 8.52227 | 7166 ft | 233 kts | 54° |
| 2026-04-23 22:37 | 41.64689 | 8.53934 | 7169 ft | 217 kts | 55° |
| 2026-04-23 22:37 | 41.65547 | 8.55569 | 7170 ft | 214 kts | 55° |
| 2026-04-23 22:37 | 41.66400 | 8.57195 | 7173 ft | 213 kts | 55° |
| 2026-04-23 22:38 | 41.66983 | 8.58992 | 7171 ft | 213 kts | 82° |
| 2026-04-23 22:38 | 41.66764 | 8.60941 | 7175 ft | 217 kts | 114° |
| 2026-04-23 22:38 | 41.65746 | 8.62443 | 7180 ft | 225 kts | 148° |
| 2026-04-23 22:38 | 41.64220 | 8.62937 | 7179 ft | 233 kts | 184° |
| 2026-04-23 22:39 | 41.62718 | 8.62132 | 7173 ft | 238 kts | 221° |
| 2026-04-23 22:39 | 41.61673 | 8.60415 | 7175 ft | 240 kts | 234° |
| 2026-04-23 22:39 | 41.60704 | 8.58589 | 7172 ft | 241 kts | 235° |
| 2026-04-23 22:39 | 41.59738 | 8.56758 | 7167 ft | 241 kts | 235° |
| 2026-04-23 22:40 | 41.58781 | 8.54918 | 7174 ft | 241 kts | 240° |
| 2026-04-23 22:40 | 41.58353 | 8.52811 | 7170 ft | 236 kts | 277° |
| 2026-04-23 22:40 | 41.60188 | 8.49663 | 7174 ft | 221 kts | 348° |
| 2026-04-23 22:41 | 41.61680 | 8.49642 | 7173 ft | 215 kts | 20° |
| 2026-04-23 22:41 | 41.62902 | 8.50664 | 7174 ft | 212 kts | 50° |
| 2026-04-23 22:41 | 41.63780 | 8.52250 | 7172 ft | 213 kts | 55° |
| 2026-04-23 22:41 | 41.64636 | 8.53864 | 7174 ft | 213 kts | 55° |
| 2026-04-23 22:42 | 41.65493 | 8.55483 | 7178 ft | 213 kts | 55° |
| 2026-04-23 22:42 | 41.66347 | 8.57096 | 7176 ft | 213 kts | 55° |
| 2026-04-23 22:42 | 41.66957 | 8.58888 | 7169 ft | 213 kts | 81° |
| 2026-04-23 22:42 | 41.66779 | 8.60842 | 7174 ft | 217 kts | 112° |
| 2026-04-23 22:43 | 41.65805 | 8.62386 | 7179 ft | 225 kts | 146° |
| 2026-04-23 22:43 | 41.64293 | 8.62943 | 7178 ft | 233 kts | 182° |
| 2026-04-23 22:43 | 41.62782 | 8.62197 | 7177 ft | 238 kts | 220° |
| 2026-04-23 22:43 | 41.61723 | 8.60493 | 7174 ft | 240 kts | 235° |
| 2026-04-23 22:44 | 41.60754 | 8.58666 | 7167 ft | 241 kts | 235° |
| 2026-04-23 22:44 | 41.59789 | 8.56840 | 7174 ft | 241 kts | 235° |
| 2026-04-23 22:44 | 41.58828 | 8.55005 | 7175 ft | 241 kts | 238° |
| 2026-04-23 22:44 | 41.58344 | 8.52914 | 7170 ft | 236 kts | 275° |
| 2026-04-23 22:45 | 41.58861 | 8.50902 | 7170 ft | 229 kts | 313° |
| 2026-04-23 22:45 | 41.60111 | 8.49695 | 7169 ft | 221 kts | 347° |
| 2026-04-23 22:45 | 41.61604 | 8.49622 | 7175 ft | 215 kts | 19° |
| 2026-04-23 22:45 | 41.62862 | 8.50618 | 7175 ft | 212 kts | 49° |
| 2026-04-23 22:46 | 41.63749 | 8.52193 | 7176 ft | 213 kts | 55° |
| 2026-04-23 22:46 | 41.64603 | 8.53798 | 7169 ft | 213 kts | 55° |
| 2026-04-23 22:46 | 41.65467 | 8.55427 | 6938 ft | 218 kts | 55° |
| 2026-04-23 22:46 | 41.66366 | 8.57125 | 6355 ft | 229 kts | 55° |
| 2026-04-23 22:47 | 41.67034 | 8.59085 | 5714 ft | 239 kts | 81° |
| 2026-04-23 22:47 | 41.66830 | 8.61321 | 5062 ft | 252 kts | 113° |
| 2026-04-23 22:47 | 41.65661 | 8.63072 | 4632 ft | 256 kts | 149° |
| 2026-04-23 22:47 | 41.63989 | 8.63640 | 4571 ft | 244 kts | 182° |
| 2026-04-23 22:48 | 41.62443 | 8.62973 | 4579 ft | 230 kts | 215° |
| 2026-04-23 22:48 | 41.61371 | 8.61428 | 4585 ft | 228 kts | 235° |
| 2026-04-23 22:48 | 41.60450 | 8.59705 | 4580 ft | 228 kts | 235° |
| 2026-04-23 22:48 | 41.59533 | 8.57981 | 4592 ft | 228 kts | 235° |
| 2026-04-23 22:49 | 41.58616 | 8.56257 | 4585 ft | 228 kts | 235° |
| 2026-04-23 22:49 | 41.57747 | 8.54494 | 4571 ft | 227 kts | 248° |
| 2026-04-23 22:49 | 41.57485 | 8.52456 | 4580 ft | 223 kts | 279° |
| 2026-04-23 22:49 | 41.58016 | 8.50555 | 4580 ft | 218 kts | 310° |
| 2026-04-23 22:50 | 41.59146 | 8.49277 | 4589 ft | 212 kts | 339° |
| 2026-04-23 22:50 | 41.60563 | 8.48886 | 4587 ft | 208 kts | 6° |
| 2026-04-23 22:50 | 41.61928 | 8.49423 | 4589 ft | 205 kts | 33° |
| 2026-04-23 22:50 | 41.62944 | 8.50698 | 4590 ft | 205 kts | 52° |
| 2026-04-23 22:51 | 41.63792 | 8.52230 | 4591 ft | 205 kts | 54° |
| 2026-04-23 22:51 | 41.64618 | 8.53791 | 4584 ft | 206 kts | 54° |
| 2026-04-23 22:51 | 41.65440 | 8.55354 | 4593 ft | 206 kts | 54° |
| 2026-04-23 22:51 | 41.66264 | 8.56919 | 4589 ft | 206 kts | 54° |
| 2026-04-23 22:52 | 41.66904 | 8.58620 | 4579 ft | 208 kts | 78° |
| 2026-04-23 22:52 | 41.66783 | 8.60547 | 4586 ft | 214 kts | 112° |
| 2026-04-23 22:52 | 41.65833 | 8.62058 | 4586 ft | 218 kts | 147° |
| 2026-04-23 22:52 | 41.64367 | 8.62544 | 4583 ft | 223 kts | 185° |
| 2026-04-23 22:53 | 41.62947 | 8.61756 | 4585 ft | 226 kts | 223° |
| 2026-04-23 22:53 | 41.61986 | 8.60112 | 4576 ft | 227 kts | 242° |
| 2026-04-23 22:53 | 41.61639 | 8.58108 | 4588 ft | 222 kts | 280° |
| 2026-04-23 22:53 | 41.62234 | 8.56272 | 4583 ft | 216 kts | 316° |
| 2026-04-23 22:54 | 41.63479 | 8.55261 | 4576 ft | 209 kts | 351° |
| 2026-04-23 22:54 | 41.64895 | 8.55370 | 4588 ft | 205 kts | 23° |
| 2026-04-23 22:54 | 41.65971 | 8.56550 | 4593 ft | 204 kts | 57° |
| 2026-04-23 22:54 | 41.66756 | 8.58138 | 4552 ft | 206 kts | 54° |
| 2026-04-23 22:55 | 41.67588 | 8.59718 | 4457 ft | 209 kts | 54° |
| 2026-04-23 22:55 | 41.68431 | 8.61315 | 4366 ft | 210 kts | 54° |
| 2026-04-23 22:55 | 41.69274 | 8.62910 | 4274 ft | 210 kts | 54° |
| 2026-04-23 22:55 | 41.70113 | 8.64501 | 4187 ft | 210 kts | 54° |
| 2026-04-23 22:56 | 41.70956 | 8.66086 | 4092 ft | 209 kts | 51° |
| 2026-04-23 22:56 | 41.72020 | 8.67396 | 4014 ft | 208 kts | 33° |
| 2026-04-23 22:56 | 41.72849 | 8.68053 | 3926 ft | 209 kts | 28° |
| 2026-04-23 22:56 | 41.74604 | 8.69194 | 3610 ft | 209 kts | 25° |
| 2026-04-23 22:57 | 41.75919 | 8.70009 | 3350 ft | 208 kts | 25° |
| 2026-04-23 22:57 | 41.76790 | 8.70548 | 3167 ft | 208 kts | 25° |
| 2026-04-23 22:57 | 41.78105 | 8.71363 | 2888 ft | 208 kts | 26° |
| 2026-04-23 22:57 | 41.79392 | 8.72161 | 2649 ft | 197 kts | 25° |
| 2026-04-23 22:58 | 41.80611 | 8.72918 | 2367 ft | 189 kts | 25° |
| 2026-04-23 22:58 | 41.81756 | 8.73628 | 2111 ft | 175 kts | 25° |
| 2026-04-23 22:58 | 41.82796 | 8.74274 | 1898 ft | 155 kts | 25° |
| 2026-04-23 22:58 | 41.83728 | 8.74853 | 1695 ft | 142 kts | 25° |
| 2026-04-23 22:59 | 41.84601 | 8.75395 | 1493 ft | 136 kts | 25° |
| 2026-04-23 22:59 | 41.85448 | 8.75922 | 1320 ft | 133 kts | 25° |
| 2026-04-23 22:59 | 41.86285 | 8.76442 | 1134 ft | 132 kts | 25° |
| 2026-04-23 22:59 | 41.87118 | 8.76960 | 961 ft | 132 kts | 26° |
| 2026-04-23 23:00 | 41.87946 | 8.77475 | 781 ft | 131 kts | 25° |
| 2026-04-23 23:00 | 41.88765 | 8.77985 | 607 ft | 128 kts | 26° |
| 2026-04-23 23:00 | 41.89574 | 8.78488 | 432 ft | 129 kts | 26° |
| 2026-04-23 23:00 | 41.90383 | 8.78990 | 250 ft | 128 kts | 25° |
| 2026-04-23 23:01 | 41.91185 | 8.79494 | 71 ft | 127 kts | 25° |
| 2026-04-23 23:01 | 41.91928 | 8.79965 | 18 ft | 100 kts | 25° |
| 2026-04-23 23:01 | 41.92405 | 8.80261 | 21 ft | 51 kts | 24° |
| 2026-04-23 23:01 | 41.92603 | 8.80385 | 25 ft | 24 kts | 27° |
| 2026-04-23 23:02 | 41.92748 | 8.80455 | 27 ft | 15 kts | 339° |
| 2026-04-23 23:02 | 41.92788 | 8.80364 | 28 ft | 3 kts | 295° |
| 2026-04-23 23:02 | 41.92794 | 8.80349 | 28 ft | 1 kts | 295° |
| 2026-04-23 23:02 | 41.92797 | 8.80339 | 28 ft | 1 kts | 297° |
| 2026-04-23 23:03 | 41.92809 | 8.80308 | 28 ft | 7 kts | 297° |
| 2026-04-23 23:03 | 41.92817 | 8.80217 | 27 ft | 14 kts | 240° |
| 2026-04-23 23:03 | 41.92752 | 8.80147 | 26 ft | 4 kts | 213° |
| 2026-04-23 23:03 | 41.92723 | 8.80123 | 29 ft | 5 kts | 209° |
| 2026-04-23 23:04 | 41.92669 | 8.80087 | 25 ft | 13 kts | 205° |
| 2026-04-23 23:04 | 41.92570 | 8.80026 | 26 ft | 17 kts | 205° |
| 2026-04-23 23:04 | 41.92465 | 8.79961 | 30 ft | 16 kts | 204° |
| 2026-04-23 23:04 | 41.92368 | 8.79901 | 28 ft | 15 kts | 205° |
| 2026-04-23 23:05 | 41.92278 | 8.79844 | 26 ft | 14 kts | 204° |
| 2026-04-23 23:05 | 41.92210 | 8.79802 | 26 ft | 8 kts | 205° |
| 2026-04-23 23:05 | 41.92161 | 8.79771 | 26 ft | 8 kts | 204° |
| 2026-04-23 23:05 | 41.92114 | 8.79744 | 26 ft | 7 kts | 204° |
| 2026-04-23 23:06 | 41.92068 | 8.79716 | 26 ft | 8 kts | 204° |
| 2026-04-23 23:06 | 41.92004 | 8.79675 | 26 ft | 13 kts | 206° |
| 2026-04-23 23:06 | 41.91910 | 8.79615 | 31 ft | 17 kts | 206° |
| 2026-04-23 23:06 | 41.91798 | 8.79545 | 26 ft | 15 kts | 204° |
| 2026-04-23 23:07 | 41.91726 | 8.79494 | 26 ft | 8 kts | 234° |
| 2026-04-23 23:07 | 41.91738 | 8.79454 | 26 ft | 4 kts | 340° |
| 2026-04-23 23:07 | 41.91750 | 8.79449 | 26 ft | 0 kts | 342° |